createdAt,value
2019-02-08T00:00:41.598Z,7.60
2019-02-08T00:03:08.350Z,7.50
2019-02-08T00:05:35.175Z,7.70
2019-02-08T00:08:02.038Z,7.60
2019-02-08T00:10:28.872Z,7.80
2019-02-08T00:12:56.163Z,7.80
2019-02-08T00:15:22.978Z,7.80
2019-02-08T00:17:49.902Z,7.90
2019-02-08T00:20:16.858Z,7.90
2019-02-08T00:22:43.773Z,7.90
2019-02-08T00:25:12.762Z,7.60
2019-02-08T00:27:39.544Z,7.70
2019-02-08T00:30:11.262Z,7.70
2019-02-08T00:32:38.064Z,7.70
2019-02-08T00:35:05.105Z,7.90
2019-02-08T00:37:31.812Z,7.80
2019-02-08T00:39:58.575Z,7.80
2019-02-08T00:42:25.353Z,7.90
2019-02-08T00:44:52.125Z,7.90
2019-02-08T00:47:18.793Z,7.90
2019-02-08T00:49:45.545Z,7.90
2019-02-08T00:52:12.473Z,7.80
2019-02-08T00:54:39.217Z,8.00
2019-02-08T00:57:05.986Z,8.00
2019-02-08T00:59:32.702Z,7.90
2019-02-08T01:01:59.421Z,7.90
2019-02-08T01:04:26.179Z,7.80
2019-02-08T01:06:52.916Z,7.90
2019-02-08T01:09:19.632Z,8.00
2019-02-08T01:11:46.738Z,8.10
2019-02-08T01:14:13.446Z,8.00
2019-02-08T01:16:40.212Z,7.90
2019-02-08T01:19:06.995Z,7.80
2019-02-08T01:21:33.746Z,7.70
2019-02-08T01:24:00.456Z,7.80
2019-02-08T01:26:27.089Z,7.60
2019-02-08T01:28:53.907Z,7.70
2019-02-08T01:31:20.637Z,7.60
2019-02-08T01:33:47.374Z,7.70
2019-02-08T01:36:14.096Z,7.70
2019-02-08T01:38:40.805Z,7.70
2019-02-08T01:41:07.766Z,7.90
2019-02-08T01:43:34.509Z,8.10
2019-02-08T01:46:01.380Z,8.00
2019-02-08T01:48:28.086Z,7.80
2019-02-08T01:50:54.819Z,7.80
2019-02-08T01:53:21.558Z,7.80
2019-02-08T01:55:48.294Z,7.70
2019-02-08T01:58:15.137Z,7.90
2019-02-08T02:00:42.843Z,7.90
2019-02-08T02:03:09.980Z,7.80
2019-02-08T02:05:36.827Z,7.90
2019-02-08T02:08:03.917Z,7.80
2019-02-08T02:10:32.707Z,7.70
2019-02-08T02:12:59.430Z,7.90
2019-02-08T02:15:26.461Z,8.20
2019-02-08T02:17:53.301Z,8.40
2019-02-08T02:20:22.849Z,8.30
2019-02-08T02:22:49.610Z,8.30
2019-02-08T02:25:16.426Z,7.90
2019-02-08T02:27:43.158Z,7.80
2019-02-08T02:30:13.126Z,8.00
2019-02-08T02:32:39.877Z,8.30
2019-02-08T02:35:07.545Z,8.10
2019-02-08T02:37:34.259Z,8.00
2019-02-08T02:40:01.097Z,8.10
2019-02-08T02:42:27.802Z,8.00
2019-02-08T02:44:54.530Z,8.10
2019-02-08T02:47:21.283Z,8.00
2019-02-08T02:49:48.007Z,8.00
2019-02-08T02:52:14.756Z,8.20
2019-02-08T02:54:41.562Z,8.10
2019-02-08T02:57:08.295Z,7.90
2019-02-08T02:59:35.303Z,8.00
2019-02-08T03:02:02.873Z,7.90
2019-02-08T03:04:29.856Z,8.10
2019-02-08T03:06:56.879Z,8.00
2019-02-08T03:09:23.939Z,7.90
2019-02-08T03:11:50.827Z,7.90
2019-02-08T03:14:17.707Z,8.00
2019-02-08T03:16:44.591Z,8.20
2019-02-08T03:19:11.560Z,8.20
2019-02-08T03:21:38.471Z,7.80
2019-02-08T03:24:12.887Z,7.80
2019-02-08T03:26:35.134Z,7.90
2019-02-08T03:29:02.097Z,7.80
2019-02-08T03:31:29.170Z,7.70
2019-02-08T03:33:56.303Z,7.80
